Time;durP1;ratioP1;P1;durP2;ratioP2;P2;SDS_P1;SDS_P2;PMS_P1;PMS_P2;Temp;Humidity;BMP_temperature;BMP_pressure;BME280_temperature;BME280_humidity;BME280_pressure;Samples;Min_cycle;Max_cycle;Signal;HPM_P1;HPM_P2
2022/03/18 00:00:00;;;;;;;10.17;3.10;;;4.00;99.90;;;;;;5071136;28;20622;-83
2022/03/18 00:02:26;;;;;;;10.07;2.87;;;3.90;99.90;;;;;;5071431;28;20594;-84
2022/03/18 00:04:53;;;;;;;11.53;2.80;;;3.90;99.90;;;;;;5071021;28;20647;-82
2022/03/18 00:07:20;;;;;;;9.20;2.97;;;3.90;99.90;;;;;;5070215;28;20179;-83
2022/03/18 00:09:50;;;;;;;10.27;3.50;;;4.00;99.90;;;;;;5069991;28;20204;-83
2022/03/18 00:12:16;;;;;;;10.67;3.90;;;4.00;99.90;;;;;;5069733;28;20624;-83
2022/03/18 00:14:43;;;;;;;11.70;3.43;;;4.10;99.90;;;;;;5070284;28;20544;-83
2022/03/18 00:17:11;;;;;;;13.90;3.00;;;4.00;99.90;;;;;;5071865;28;20187;-83
2022/03/18 00:19:38;;;;;;;12.87;4.27;;;4.10;99.90;;;;;;5074801;28;20652;-84
2022/03/18 00:22:05;;;;;;;5.60;3.20;;;4.10;99.90;;;;;;5073518;28;20168;-82
2022/03/18 00:24:32;;;;;;;10.30;3.30;;;3.90;99.90;;;;;;5073483;28;20168;-83
2022/03/18 00:26:58;;;;;;;10.03;3.97;;;3.80;99.90;;;;;;5073227;28;20169;-83
2022/03/18 00:29:25;;;;;;;13.97;3.60;;;3.90;99.90;;;;;;5072913;28;20279;-84
2022/03/18 00:31:51;;;;;;;7.83;3.33;;;3.80;99.90;;;;;;5074070;28;20165;-83
2022/03/18 00:34:16;;;;;;;15.60;4.30;;;3.80;99.90;;;;;;5072954;28;20671;-83
2022/03/18 00:36:42;;;;;;;10.03;4.23;;;3.70;99.90;;;;;;5073573;28;20207;-83
2022/03/18 00:39:07;;;;;;;9.13;3.50;;;3.60;99.90;;;;;;5072994;28;20192;-83
2022/03/18 00:41:33;;;;;;;9.47;3.47;;;3.70;99.90;;;;;;5072768;28;20230;-83
2022/03/18 00:43:59;;;;;;;6.63;3.50;;;3.70;99.90;;;;;;5073986;28;20171;-83
2022/03/18 00:46:25;;;;;;;10.23;3.53;;;3.70;99.90;;;;;;5074166;28;20243;-83
2022/03/18 00:54:21;;;;;;;11.33;3.97;;;3.60;99.90;;;;;;5073838;28;20229;-82
2022/03/18 00:56:47;;;;;;;9.17;3.67;;;3.60;99.90;;;;;;5074273;28;20175;-84
2022/03/18 00:59:12;;;;;;;15.30;4.17;;;3.50;99.90;;;;;;5074255;28;20270;-83
2022/03/18 01:01:38;;;;;;;14.27;4.13;;;3.50;99.90;;;;;;5072590;28;20254;-84
2022/03/18 01:04:04;;;;;;;13.13;4.43;;;3.40;99.90;;;;;;5072752;28;20621;-83
2022/03/18 01:06:31;;;;;;;15.20;4.37;;;3.60;99.90;;;;;;5073520;28;20176;-83
2022/03/18 01:08:56;;;;;;;7.83;4.27;;;3.50;99.90;;;;;;5070975;28;20165;-83
2022/03/18 01:11:22;;;;;;;10.00;3.53;;;3.50;99.90;;;;;;5072332;28;20253;-83
2022/03/18 01:13:47;;;;;;;10.47;4.57;;;3.40;99.90;;;;;;5072293;28;20670;-83
2022/03/18 01:16:13;;;;;;;12.63;4.67;;;3.20;99.90;;;;;;5071942;28;20180;-84
2022/03/18 01:18:39;;;;;;;8.77;4.20;;;3.20;99.90;;;;;;5074242;28;20205;-83
2022/03/18 01:21:05;;;;;;;9.40;3.83;;;3.30;99.90;;;;;;5073943;28;20200;-83
2022/03/18 01:23:30;;;;;;;11.20;3.90;;;3.30;99.90;;;;;;5073423;28;20630;-84
2022/03/18 01:25:56;;;;;;;9.17;3.97;;;3.30;99.90;;;;;;5076143;28;20176;-83
2022/03/18 01:28:22;;;;;;;15.10;3.67;;;3.20;99.90;;;;;;5075374;28;20207;-83
2022/03/18 01:30:48;;;;;;;11.90;4.40;;;3.20;99.90;;;;;;5074450;28;20291;-84
2022/03/18 01:33:14;;;;;;;8.33;3.77;;;3.20;99.90;;;;;;5075412;28;20200;-83
2022/03/18 01:35:40;;;;;;;7.13;3.37;;;3.20;99.90;;;;;;5073371;28;20619;-84
2022/03/18 01:38:05;;;;;;;12.80;4.10;;;3.20;99.90;;;;;;5073349;28;20276;-84
2022/03/18 01:40:31;;;;;;;12.40;3.73;;;3.20;99.90;;;;;;5072920;28;20225;-84
2022/03/18 01:42:56;;;;;;;16.17;4.20;;;3.20;99.90;;;;;;5072332;28;20169;-83
2022/03/18 01:45:23;;;;;;;10.03;3.67;;;3.20;99.90;;;;;;5073644;28;21088;-83
2022/03/18 01:47:48;;;;;;;10.30;3.97;;;3.00;99.90;;;;;;5073757;28;20279;-83
2022/03/18 01:50:15;;;;;;;12.27;4.50;;;3.10;99.90;;;;;;5073529;28;20294;-83
2022/03/18 01:52:43;;;;;;;11.77;4.30;;;3.00;99.90;;;;;;5071679;28;20196;-83
2022/03/18 01:55:09;;;;;;;16.63;4.10;;;3.00;99.90;;;;;;5071967;28;20177;-83
2022/03/18 01:57:34;;;;;;;12.73;4.30;;;3.00;99.90;;;;;;5072257;28;20275;-83
2022/03/18 02:00:00;;;;;;;6.93;3.47;;;3.10;99.90;;;;;;5071915;28;20208;-83
2022/03/18 02:02:26;;;;;;;13.73;4.80;;;3.10;99.90;;;;;;5071884;28;20552;-84
2022/03/18 02:04:52;;;;;;;19.30;4.33;;;3.10;99.90;;;;;;5072979;28;20644;-83
2022/03/18 02:07:18;;;;;;;10.23;4.13;;;3.00;99.90;;;;;;5072034;28;20248;-84
2022/03/18 02:09:46;;;;;;;8.97;3.73;;;2.90;99.90;;;;;;5073093;28;20739;-83
2022/03/18 02:12:12;;;;;;;9.37;3.57;;;3.00;99.90;;;;;;5072563;28;20191;-84
2022/03/18 02:14:47;;;;;;;12.00;4.13;;;3.00;99.90;;;;;;5072964;28;20678;-84
2022/03/18 02:17:16;;;;;;;13.80;3.93;;;2.90;99.90;;;;;;5072976;28;20548;-83
2022/03/18 02:19:45;;;;;;;13.80;4.13;;;2.90;99.90;;;;;;5071640;28;20309;-84
2022/03/18 02:22:17;;;;;;;11.17;3.67;;;2.70;99.90;;;;;;5071385;28;20566;-84
2022/03/18 02:24:45;;;;;;;9.00;3.67;;;2.70;99.90;;;;;;5072679;28;20244;-83
2022/03/18 02:27:12;;;;;;;7.10;3.97;;;2.80;99.90;;;;;;5071472;28;20511;-83
2022/03/18 02:29:38;;;;;;;12.63;4.03;;;2.70;99.90;;;;;;5072921;28;20210;-83
2022/03/18 02:32:05;;;;;;;10.00;3.77;;;2.70;99.90;;;;;;5069446;28;20172;-84
2022/03/18 02:34:31;;;;;;;14.47;3.60;;;2.70;99.90;;;;;;5071293;28;20169;-83
2022/03/18 02:36:57;;;;;;;15.13;4.27;;;2.60;99.90;;;;;;5072348;28;20265;-84
2022/03/18 02:39:22;;;;;;;16.57;4.70;;;2.40;99.90;;;;;;5071489;28;20431;-83
2022/03/18 02:41:48;;;;;;;13.57;4.43;;;2.20;99.90;;;;;;5070814;28;20168;-84
2022/03/18 02:44:14;;;;;;;14.47;3.60;;;2.20;99.90;;;;;;5072821;28;20183;-83
2022/03/18 02:46:40;;;;;;;9.83;3.60;;;2.30;99.90;;;;;;5070673;28;20564;-83
2022/03/18 02:49:06;;;;;;;12.50;4.30;;;2.30;99.90;;;;;;5072174;28;20538;-83
2022/03/18 02:51:32;;;;;;;11.17;4.03;;;2.30;99.90;;;;;;5071021;28;20562;-83
2022/03/18 02:53:58;;;;;;;11.60;3.97;;;2.30;99.90;;;;;;5071103;28;20171;-83
2022/03/18 02:56:24;;;;;;;9.53;3.63;;;2.30;99.90;;;;;;5072872;28;20180;-84
2022/03/18 02:58:50;;;;;;;9.20;3.57;;;2.30;99.90;;;;;;5072561;28;20169;-82
2022/03/18 03:01:16;;;;;;;13.07;3.67;;;2.10;99.90;;;;;;5070888;28;20218;-83
2022/03/18 03:03:41;;;;;;;6.17;3.97;;;1.90;99.90;;;;;;5072418;28;20179;-83
2022/03/18 03:08:51;;;;;;;9.40;4.10;;;1.90;99.90;;;;;;5071035;28;20213;-84
2022/03/18 03:11:17;;;;;;;7.93;3.70;;;2.00;99.90;;;;;;5071513;28;20233;-83
2022/03/18 03:13:43;;;;;;;9.13;4.33;;;2.00;99.90;;;;;;5070937;28;20169;-83
2022/03/18 03:16:09;;;;;;;10.53;4.37;;;2.10;99.90;;;;;;5070725;28;20630;-83
2022/03/18 03:18:35;;;;;;;10.83;4.20;;;2.10;99.90;;;;;;5070690;28;20658;-83
2022/03/18 03:21:01;;;;;;;8.23;4.20;;;2.10;99.90;;;;;;5070501;28;20666;-83
2022/03/18 03:23:26;;;;;;;12.47;4.20;;;2.10;99.90;;;;;;5071759;28;20258;-84
2022/03/18 03:25:53;;;;;;;9.00;4.20;;;2.00;99.90;;;;;;5072184;28;20630;-83
2022/03/18 03:28:19;;;;;;;8.53;4.27;;;1.80;99.90;;;;;;5072247;28;20176;-83
2022/03/18 03:30:45;;;;;;;13.70;4.77;;;1.90;99.90;;;;;;5071954;28;20198;-83
2022/03/18 03:33:11;;;;;;;12.17;4.53;;;2.00;99.90;;;;;;5071989;28;20205;-83
2022/03/18 03:35:37;;;;;;;11.50;4.70;;;1.90;99.90;;;;;;5070169;28;20624;-83
2022/03/18 03:38:03;;;;;;;8.57;4.43;;;1.80;99.90;;;;;;5072466;28;20193;-83
2022/03/18 03:40:29;;;;;;;11.27;4.50;;;1.80;99.90;;;;;;5072648;28;20205;-83
2022/03/18 03:42:55;;;;;;;14.40;5.07;;;1.80;99.90;;;;;;5071054;28;20173;-83
2022/03/18 03:45:20;;;;;;;11.57;4.37;;;1.70;99.90;;;;;;5070677;28;20171;-83
2022/03/18 03:47:46;;;;;;;8.53;4.30;;;1.80;99.90;;;;;;5072520;28;20187;-83
2022/03/18 03:50:12;;;;;;;14.93;4.90;;;1.80;99.90;;;;;;5070591;28;20202;-83
2022/03/18 03:52:39;;;;;;;11.80;4.47;;;1.80;99.90;;;;;;5072336;28;20172;-84
2022/03/18 03:55:06;;;;;;;10.00;4.70;;;1.80;99.90;;;;;;5075011;28;20181;-83
2022/03/18 03:57:32;;;;;;;12.37;4.63;;;1.70;99.90;;;;;;5075190;28;20252;-83
2022/03/18 03:59:58;;;;;;;15.20;4.70;;;1.70;99.90;;;;;;5079781;22;20230;-76
2022/03/18 04:02:24;;;;;;;9.90;4.27;;;1.80;99.90;;;;;;5071982;28;20167;-76
2022/03/18 04:04:50;;;;;;;14.50;4.70;;;1.70;99.90;;;;;;5071521;28;20229;-76
2022/03/18 04:07:17;;;;;;;11.53;4.87;;;1.70;99.90;;;;;;5072372;28;20167;-77
2022/03/18 04:09:43;;;;;;;19.00;5.17;;;1.70;99.90;;;;;;5071571;28;20200;-76
2022/03/18 04:12:09;;;;;;;11.50;5.23;;;1.50;99.90;;;;;;5071857;28;20170;-77
2022/03/18 04:14:34;;;;;;;15.33;5.13;;;1.60;99.90;;;;;;5072149;28;20262;-76
2022/03/18 04:17:02;;;;;;;12.23;4.77;;;1.60;99.90;;;;;;5072090;28;20164;-77
2022/03/18 04:19:29;;;;;;;14.60;5.13;;;1.70;99.90;;;;;;5071768;28;20197;-76
2022/03/18 04:21:54;;;;;;;14.33;4.37;;;1.70;99.90;;;;;;5071824;28;20226;-76
2022/03/18 04:24:20;;;;;;;12.60;4.70;;;1.70;99.90;;;;;;5071842;28;20295;-76
2022/03/18 04:26:46;;;;;;;10.13;5.03;;;1.60;99.90;;;;;;5072128;28;20185;-77
2022/03/18 04:29:12;;;;;;;15.63;5.10;;;1.60;99.90;;;;;;5071869;28;20185;-76
2022/03/18 04:31:39;;;;;;;11.20;4.90;;;1.70;99.90;;;;;;5071494;28;20199;-76
2022/03/18 04:34:05;;;;;;;16.77;5.20;;;1.60;99.90;;;;;;5071613;28;20670;-77
2022/03/18 04:36:30;;;;;;;13.90;5.57;;;1.50;99.90;;;;;;5071349;28;20170;-76
2022/03/18 04:38:56;;;;;;;15.03;5.60;;;1.40;99.90;;;;;;5071820;28;20238;-76
2022/03/18 04:41:22;;;;;;;13.10;5.70;;;1.40;99.90;;;;;;5071508;28;20249;-76
2022/03/18 04:43:48;;;;;;;12.87;5.10;;;1.40;99.90;;;;;;5071674;28;20643;-76
2022/03/18 04:46:14;;;;;;;11.87;5.23;;;1.50;99.90;;;;;;5071458;28;20166;-76
2022/03/18 04:48:40;;;;;;;13.97;5.27;;;1.50;99.90;;;;;;5071441;28;20281;-76
2022/03/18 04:51:05;;;;;;;11.40;5.30;;;1.40;99.90;;;;;;5071417;28;20228;-77
2022/03/18 04:53:31;;;;;;;13.40;5.23;;;1.40;99.90;;;;;;5071474;28;20627;-77
2022/03/18 04:55:57;;;;;;;12.87;5.30;;;1.40;99.90;;;;;;5071409;28;20216;-76
2022/03/18 04:58:22;;;;;;;19.77;5.43;;;1.40;99.90;;;;;;5071451;28;20671;-77
2022/03/18 05:00:48;;;;;;;18.07;5.73;;;1.40;99.90;;;;;;5031750;28;1088706;-77
2022/03/18 05:03:14;;;;;;;12.63;5.27;;;1.30;99.90;;;;;;5071996;28;20201;-77
2022/03/18 05:05:39;;;;;;;21.43;5.17;;;1.20;99.90;;;;;;5071998;28;20178;-76
2022/03/18 05:08:05;;;;;;;24.50;6.10;;;1.10;99.90;;;;;;5072364;28;20243;-77
2022/03/18 05:10:31;;;;;;;16.00;5.73;;;1.20;99.90;;;;;;5072282;28;20216;-76
2022/03/18 05:12:57;;;;;;;16.97;6.00;;;1.20;99.90;;;;;;5072269;28;20170;-76
2022/03/18 05:15:23;;;;;;;16.63;6.23;;;1.40;99.90;;;;;;5072319;28;20257;-76
2022/03/18 05:17:52;;;;;;;11.97;6.50;;;1.30;99.90;;;;;;5071993;28;20192;-76
2022/03/18 05:20:18;;;;;;;16.83;5.87;;;1.20;99.90;;;;;;5072148;28;20663;-77
2022/03/18 05:22:48;;;;;;;13.07;5.70;;;1.10;99.90;;;;;;5072004;28;20678;-76
2022/03/18 05:25:13;;;;;;;18.70;6.00;;;1.20;99.90;;;;;;5070047;28;20195;-76
2022/03/18 05:27:44;;;;;;;11.37;6.10;;;1.00;99.90;;;;;;5071928;28;20256;-77
2022/03/18 05:30:11;;;;;;;9.70;5.23;;;1.00;99.90;;;;;;5071865;28;20195;-76
2022/03/18 05:32:37;;;;;;;19.90;7.43;;;1.10;99.90;;;;;;5071643;28;20180;-76
2022/03/18 05:35:04;;;;;;;16.00;6.10;;;1.20;99.90;;;;;;5071901;28;20169;-77
2022/03/18 05:37:30;;;;;;;14.27;6.30;;;1.20;99.90;;;;;;5071208;28;20238;-77
2022/03/18 05:39:56;;;;;;;14.83;6.57;;;1.20;99.90;;;;;;5071634;28;20676;-76
2022/03/18 05:42:21;;;;;;;17.40;5.90;;;1.20;99.90;;;;;;5071573;28;20579;-77
2022/03/18 05:44:47;;;;;;;17.00;5.53;;;1.10;99.90;;;;;;5071464;28;20196;-77
2022/03/18 05:47:12;;;;;;;13.90;6.80;;;1.10;99.90;;;;;;5071267;28;20544;-76
2022/03/18 05:49:38;;;;;;;16.57;6.60;;;1.10;99.90;;;;;;5071443;28;20207;-77
2022/03/18 05:52:04;;;;;;;15.80;6.17;;;0.90;99.90;;;;;;5071257;28;20247;-76
2022/03/18 05:54:29;;;;;;;14.37;6.67;;;0.90;99.90;;;;;;5071317;28;20172;-76
2022/03/18 05:56:55;;;;;;;20.27;7.17;;;1.00;99.90;;;;;;5069412;28;20182;-77
2022/03/18 05:59:23;;;;;;;13.23;6.17;;;1.20;99.90;;;;;;5071133;28;20672;-77
2022/03/18 06:01:50;;;;;;;18.20;7.03;;;1.20;99.90;;;;;;5071118;28;20190;-77
2022/03/18 06:04:16;;;;;;;18.53;6.57;;;1.20;99.90;;;;;;5070660;28;20167;-76
2022/03/18 06:06:44;;;;;;;16.30;6.83;;;1.20;99.90;;;;;;5069191;28;20164;-76
2022/03/18 06:12:01;;;;;;;17.47;7.37;;;1.40;99.90;;;;;;5071959;28;20268;-76
2022/03/18 06:14:28;;;;;;;16.90;7.00;;;1.50;99.90;;;;;;5070930;28;20213;-77
2022/03/18 06:16:59;;;;;;;15.63;7.10;;;1.40;99.90;;;;;;5070755;28;20169;-76
2022/03/18 06:19:26;;;;;;;14.93;6.93;;;1.40;99.90;;;;;;5069468;28;20187;-77
2022/03/18 06:21:52;;;;;;;16.37;6.17;;;1.50;99.90;;;;;;5069033;28;20253;-77
2022/03/18 06:24:20;;;;;;;15.67;5.70;;;1.70;99.90;;;;;;5070931;28;20172;-76
2022/03/18 06:26:46;;;;;;;22.50;5.97;;;1.80;99.90;;;;;;5070908;28;20254;-77
2022/03/18 06:29:13;;;;;;;18.67;5.90;;;1.70;99.90;;;;;;5070861;28;20198;-76
2022/03/18 06:31:41;;;;;;;21.73;6.03;;;1.80;99.90;;;;;;5068839;28;20195;-78
2022/03/18 06:34:09;;;;;;;9.30;5.43;;;2.00;99.90;;;;;;5072416;28;20241;-77
2022/03/18 06:36:35;;;;;;;11.93;4.57;;;2.10;99.90;;;;;;5072150;28;20247;-78
2022/03/18 06:39:01;;;;;;;10.13;4.93;;;2.40;99.90;;;;;;5073102;28;20184;-78
2022/03/18 06:41:27;;;;;;;16.67;5.90;;;2.60;99.90;;;;;;5071888;28;20200;-77
2022/03/18 06:43:53;;;;;;;12.70;5.60;;;2.60;99.90;;;;;;5071981;28;20221;-78
2022/03/18 06:46:19;;;;;;;8.67;5.43;;;2.90;99.90;;;;;;5071865;28;20218;-77
2022/03/18 06:48:45;;;;;;;11.83;5.60;;;3.90;99.90;;;;;;5072335;28;20194;-78
2022/03/18 06:51:11;;;;;;;16.17;5.80;;;4.10;99.90;;;;;;5072785;28;20198;-77
2022/03/18 06:53:37;;;;;;;12.40;5.87;;;4.10;99.90;;;;;;5073115;28;20196;-77
2022/03/18 06:56:07;;;;;;;11.93;5.33;;;4.00;99.90;;;;;;5072587;28;20629;-77
2022/03/18 06:58:34;;;;;;;14.83;5.80;;;4.10;99.90;;;;;;5070963;28;20248;-78
2022/03/18 07:00:59;;;;;;;13.73;5.90;;;4.80;99.90;;;;;;5074455;28;20569;-77
2022/03/18 07:03:25;;;;;;;19.03;5.90;;;5.00;99.90;;;;;;5073780;28;20173;-78
2022/03/18 07:05:51;;;;;;;15.07;5.93;;;4.90;99.90;;;;;;5070505;28;20168;-78
2022/03/18 07:08:17;;;;;;;14.87;5.67;;;5.00;99.90;;;;;;5071354;28;20203;-79
2022/03/18 07:10:42;;;;;;;10.07;5.13;;;5.30;99.90;;;;;;5070996;28;20222;-78
2022/03/18 07:13:08;;;;;;;14.97;5.93;;;6.00;99.90;;;;;;5071625;28;20177;-78
2022/03/18 07:15:34;;;;;;;13.20;5.20;;;6.50;99.90;;;;;;5071940;28;20171;-79
2022/03/18 07:17:59;;;;;;;14.83;5.57;;;7.10;99.90;;;;;;5071146;28;20212;-79
2022/03/18 07:20:31;;;;;;;10.90;4.73;;;7.30;99.90;;;;;;5070947;28;20173;-79
2022/03/18 07:23:06;;;;;;;18.80;4.80;;;8.10;99.90;;;;;;5068993;28;20176;-79
2022/03/18 07:25:33;;;;;;;11.20;4.70;;;9.40;99.90;;;;;;5069444;28;20175;-80
2022/03/18 07:27:59;;;;;;;18.07;5.23;;;8.80;99.90;;;;;;5072758;28;20211;-82
2022/03/18 07:30:25;;;;;;;21.27;4.93;;;10.00;99.90;;;;;;5073022;28;20202;-80
2022/03/18 07:32:51;;;;;;;16.10;5.30;;;11.90;97.80;;;;;;5073497;28;20169;-81
2022/03/18 07:35:18;;;;;;;18.07;5.37;;;12.40;94.20;;;;;;5073236;28;20575;-82
2022/03/18 07:37:43;;;;;;;17.27;5.53;;;12.50;93.20;;;;;;5072908;28;20177;-82
2022/03/18 07:40:11;;;;;;;12.80;4.87;;;12.90;92.50;;;;;;5073683;28;20179;-82
2022/03/18 07:42:50;;;;;;;16.13;5.40;;;13.60;91.20;;;;;;5076661;28;20705;-81
2022/03/18 07:45:26;;;;;;;24.43;5.23;;;14.20;89.60;;;;;;5074033;28;20217;-80
2022/03/18 07:47:53;;;;;;;16.77;4.93;;;13.80;89.80;;;;;;5073296;28;20156;-79
2022/03/18 07:50:20;;;;;;;13.23;5.53;;;12.50;91.10;;;;;;5071249;28;20688;-81
2022/03/18 07:52:54;;;;;;;14.50;4.57;;;12.80;93.00;;;;;;5071134;28;20172;-81
2022/03/18 07:55:21;;;;;;;10.77;4.43;;;14.00;88.80;;;;;;5070832;28;20176;-79
2022/03/18 07:57:47;;;;;;;12.40;4.78;;;14.60;86.00;;;;;;5070785;28;20165;-81
2022/03/18 08:00:15;;;;;;;12.57;4.28;;;14.70;85.70;;;;;;5070862;28;20602;-81
2022/03/18 08:02:42;;;;;;;10.35;4.05;;;15.40;82.50;;;;;;5070588;28;20177;-81
2022/03/18 08:05:08;;;;;;;12.85;4.28;;;15.40;86.20;;;;;;5070931;28;20177;-81
2022/03/18 08:07:38;;;;;;;14.60;3.85;;;15.80;82.70;;;;;;5073515;28;20184;-83
2022/03/18 08:10:05;;;;;;;9.60;3.67;;;16.00;81.50;;;;;;5074043;28;20192;-82
2022/03/18 08:12:31;;;;;;;8.15;3.63;;;14.50;82.40;;;;;;5073195;28;20172;-81
2022/03/18 08:14:58;;;;;;;6.53;3.28;;;13.50;86.00;;;;;;5073186;28;20528;-80
2022/03/18 08:17:24;;;;;;;10.13;3.85;;;15.40;79.80;;;;;;5073643;28;20172;-81
2022/03/18 08:19:51;;;;;;;10.90;3.75;;;15.40;81.80;;;;;;5072618;28;20229;-82
2022/03/18 08:22:20;;;;;;;10.35;3.20;;;14.10;84.40;;;;;;5073110;28;20177;-81
2022/03/18 08:24:46;;;;;;;9.38;3.80;;;12.80;87.90;;;;;;5074431;28;20247;-81
2022/03/18 08:27:13;;;;;;;6.90;3.10;;;11.80;90.40;;;;;;5081570;28;20637;-80
2022/03/18 08:29:38;;;;;;;8.43;3.08;;;11.00;90.40;;;;;;5082145;28;20219;-79
2022/03/18 08:32:08;;;;;;;9.85;2.90;;;11.20;90.20;;;;;;5081257;28;20169;-80
2022/03/18 08:34:34;;;;;;;14.98;3.20;;;10.90;91.40;;;;;;5079129;28;20771;-80
2022/03/18 08:37:00;;;;;;;10.73;2.78;;;12.10;92.10;;;;;;5075621;28;20480;-80
2022/03/18 08:39:26;;;;;;;7.95;3.28;;;13.70;83.00;;;;;;5072404;28;20665;-80
2022/03/18 08:41:51;;;;;;;11.50;2.88;;;14.00;81.40;;;;;;5072303;28;20221;-80
2022/03/18 08:44:20;;;;;;;9.02;3.20;;;15.30;82.50;;;;;;5073359;28;20176;-79
2022/03/18 08:46:46;;;;;;;14.07;2.95;;;15.20;77.80;;;;;;5074731;28;20184;-80
2022/03/18 08:49:12;;;;;;;12.25;2.90;;;15.00;80.50;;;;;;5076684;28;20192;-79
2022/03/18 08:51:38;;;;;;;8.95;3.08;;;15.60;81.90;;;;;;5078566;28;20542;-80
2022/03/18 08:54:04;;;;;;;12.35;3.25;;;15.30;78.40;;;;;;5076308;28;20230;-81
2022/03/18 08:56:31;;;;;;;9.70;3.47;;;14.60;80.80;;;;;;5074108;28;20172;-81
2022/03/18 08:58:57;;;;;;;9.23;2.72;;;15.40;81.00;;;;;;5074433;28;20192;-80
2022/03/18 09:01:23;;;;;;;7.68;2.35;;;15.10;80.30;;;;;;5074352;28;20597;-81
2022/03/18 09:03:48;;;;;;;7.18;3.10;;;14.00;79.60;;;;;;5074319;28;20180;-80
2022/03/18 09:06:14;;;;;;;7.82;2.55;;;13.20;85.00;;;;;;5074371;28;20603;-80
2022/03/18 09:08:41;;;;;;;7.72;2.63;;;13.70;84.50;;;;;;5074739;28;20196;-80
2022/03/18 09:11:07;;;;;;;11.43;2.97;;;14.00;80.30;;;;;;5070870;28;20661;-80
2022/03/18 09:13:37;;;;;;;9.40;2.77;;;13.80;83.20;;;;;;5059883;28;20706;-80
2022/03/18 09:16:04;;;;;;;9.13;2.73;;;13.80;81.60;;;;;;5056005;28;20165;-81
2022/03/18 09:18:30;;;;;;;14.23;3.30;;;14.00;82.20;;;;;;5054159;28;20201;-80
2022/03/18 09:20:56;;;;;;;9.60;2.77;;;13.80;83.40;;;;;;5055149;28;20342;-81
2022/03/18 09:23:21;;;;;;;4.47;2.67;;;14.10;81.40;;;;;;5055927;28;20649;-79
2022/03/18 09:25:47;;;;;;;7.60;2.97;;;13.60;83.20;;;;;;5054804;28;20230;-81
2022/03/18 09:28:13;;;;;;;9.07;2.80;;;13.10;84.20;;;;;;5054737;28;20299;-81
2022/03/18 09:30:39;;;;;;;9.23;2.23;;;13.60;84.20;;;;;;5054592;28;20202;-81
2022/03/18 09:33:05;;;;;;;8.53;2.57;;;13.00;83.10;;;;;;5054668;28;20377;-80
2022/03/18 09:35:31;;;;;;;9.17;2.47;;;13.20;84.00;;;;;;5055593;28;20598;-81
2022/03/18 09:37:56;;;;;;;5.90;2.20;;;13.90;84.30;;;;;;5055373;28;20256;-81
2022/03/18 09:40:22;;;;;;;9.33;2.33;;;13.30;82.80;;;;;;5055246;28;20197;-81
2022/03/18 09:42:57;;;;;;;5.10;1.87;;;13.00;82.60;;;;;;5053853;28;20544;-81
2022/03/18 09:45:24;;;;;;;6.63;2.07;;;13.20;82.00;;;;;;5053508;28;20744;-81
2022/03/18 09:47:51;;;;;;;8.33;2.40;;;13.90;80.40;;;;;;5054039;28;20211;-81
2022/03/18 09:50:18;;;;;;;9.67;2.60;;;13.30;80.40;;;;;;5052553;28;20227;-81
2022/03/18 09:52:44;;;;;;;10.50;2.23;;;13.50;81.20;;;;;;5053309;28;20174;-81
2022/03/18 09:55:10;;;;;;;7.17;2.07;;;13.50;83.70;;;;;;5053538;28;20174;-80
2022/03/18 09:57:39;;;;;;;5.87;2.50;;;13.60;82.60;;;;;;5053544;28;20270;-81
2022/03/18 10:00:05;;;;;;;6.23;2.23;;;13.00;84.10;;;;;;5055543;28;20216;-81
2022/03/18 10:02:33;;;;;;;8.50;2.30;;;12.90;83.10;;;;;;5057223;28;20178;-81
2022/03/18 10:05:17;;;;;;;10.33;3.10;;;13.40;84.90;;;;;;5056242;28;20238;-81
2022/03/18 10:07:54;;;;;;;5.13;2.30;;;13.40;83.40;;;;;;5055863;28;20181;-81
2022/03/18 10:10:20;;;;;;;8.30;2.33;;;13.00;83.70;;;;;;5058824;28;20280;-81
2022/03/18 10:12:48;;;;;;;12.83;2.70;;;13.40;84.00;;;;;;5063488;28;20552;-82
2022/03/18 10:15:22;;;;;;;6.07;2.10;;;13.60;81.50;;;;;;5059135;28;20201;-81
2022/03/18 10:17:53;;;;;;;9.97;2.33;;;13.50;82.80;;;;;;5059670;28;20180;-82
2022/03/18 10:20:29;;;;;;;7.67;2.43;;;14.00;82.20;;;;;;5053037;28;20258;-80
2022/03/18 10:22:57;;;;;;;6.77;2.40;;;14.10;82.20;;;;;;5052688;28;20267;-80
2022/03/18 10:25:41;;;;;;;8.03;2.00;;;14.00;81.30;;;;;;5053409;28;20190;-79
2022/03/18 10:28:10;;;;;;;5.00;1.60;;;14.20;80.60;;;;;;5053166;28;20205;-79
2022/03/18 10:30:36;;;;;;;5.97;1.87;;;13.70;80.80;;;;;;5053013;28;20251;-80
2022/03/18 10:33:03;;;;;;;6.97;1.83;;;13.90;78.30;;;;;;5053164;28;20177;-80
2022/03/18 10:38:32;;;;;;;5.77;2.10;;;14.30;81.20;;;;;;5055086;28;20622;-81
2022/03/18 10:40:59;;;;;;;10.43;2.40;;;13.70;77.30;;;;;;5054739;28;20195;-82
2022/03/18 10:43:26;;;;;;;6.43;2.00;;;13.90;80.20;;;;;;5057580;28;20181;-80
2022/03/18 10:46:03;;;;;;;6.13;2.30;;;13.90;80.70;;;;;;5053151;28;20177;-81
2022/03/18 10:48:29;;;;;;;4.57;2.00;;;14.00;80.10;;;;;;5051802;28;20201;-82
2022/03/18 10:51:06;;;;;;;7.53;2.07;;;14.30;78.10;;;;;;5051916;28;20297;-82
2022/03/18 10:53:33;;;;;;;5.77;3.03;;;13.40;80.00;;;;;;5051816;28;20196;-81
2022/03/18 10:56:03;;;;;;;6.30;2.10;;;13.70;80.80;;;;;;5051365;28;20584;-80
2022/03/18 10:58:33;;;;;;;6.23;2.07;;;13.80;79.50;;;;;;5051370;28;20537;-81
2022/03/18 11:01:02;;;;;;;6.93;2.43;;;14.10;78.30;;;;;;5051269;28;20193;-81
2022/03/18 11:03:30;;;;;;;7.30;2.07;;;14.30;79.80;;;;;;5051263;28;20182;-80
2022/03/18 11:06:03;;;;;;;6.00;2.40;;;14.40;79.30;;;;;;5052164;28;20519;-80
2022/03/18 11:08:53;;;;;;;9.13;2.00;;;14.30;77.80;;;;;;5053068;28;20205;-80
2022/03/18 11:11:22;;;;;;;7.13;2.30;;;14.40;79.20;;;;;;5054469;28;20216;-82
2022/03/18 11:14:01;;;;;;;6.20;2.37;;;14.30;80.20;;;;;;5055972;28;20177;-81
2022/03/18 11:16:34;;;;;;;7.73;2.30;;;14.10;78.40;;;;;;5057806;28;20641;-80
2022/03/18 11:19:01;;;;;;;7.13;2.70;;;13.90;79.40;;;;;;5058014;28;20194;-80
2022/03/18 11:21:35;;;;;;;7.00;2.33;;;14.10;78.90;;;;;;5056857;28;20201;-80
2022/03/18 11:24:03;;;;;;;7.43;2.57;;;14.20;80.40;;;;;;5054878;28;20268;-82
2022/03/18 11:26:31;;;;;;;5.37;2.20;;;14.20;80.50;;;;;;5053828;28;20644;-80
2022/03/18 11:29:08;;;;;;;6.00;2.27;;;14.60;80.00;;;;;;5058727;28;20661;-81
2022/03/18 11:31:34;;;;;;;7.37;2.37;;;14.40;79.10;;;;;;5057790;28;20200;-80
2022/03/18 11:34:11;;;;;;;7.77;2.60;;;14.40;80.00;;;;;;5060060;28;20690;-81
2022/03/18 11:36:45;;;;;;;4.70;2.60;;;14.70;79.30;;;;;;5057236;28;20197;-82
2022/03/18 11:39:16;;;;;;;6.80;2.17;;;14.30;79.70;;;;;;5056727;28;20212;-81
2022/03/18 11:41:46;;;;;;;6.33;2.47;;;14.30;80.80;;;;;;5052882;28;20162;-79
2022/03/18 11:44:55;;;;;;;8.77;3.47;;;14.30;79.10;;;;;;5052501;28;20181;-81
2022/03/18 11:47:30;;;;;;;9.30;2.97;;;14.50;78.00;;;;;;5053626;28;20185;-81
2022/03/18 11:49:57;;;;;;;11.30;3.00;;;14.50;78.20;;;;;;5051267;28;20216;-81
2022/03/18 11:52:23;;;;;;;8.43;2.53;;;14.10;80.90;;;;;;5052231;28;20189;-81
2022/03/18 11:54:54;;;;;;;4.77;2.50;;;14.10;79.70;;;;;;5053099;28;20204;-81
2022/03/18 11:57:43;;;;;;;8.27;2.03;;;14.80;80.70;;;;;;5053611;28;20217;-83
2022/03/18 12:00:32;;;;;;;7.13;2.90;;;14.80;79.40;;;;;;5054485;28;20193;-83
2022/03/18 12:03:02;;;;;;;8.00;2.80;;;15.40;80.50;;;;;;5054445;28;20196;-82
2022/03/18 12:05:32;;;;;;;5.63;2.30;;;16.40;79.00;;;;;;5051658;28;20669;-82
2022/03/18 12:07:59;;;;;;;11.43;3.00;;;16.60;74.50;;;;;;5052029;28;20179;-81
2022/03/18 12:10:39;;;;;;;7.50;2.00;;;16.10;75.50;;;;;;5050529;28;20201;-79
2022/03/18 12:13:05;;;;;;;7.37;2.40;;;15.20;78.10;;;;;;5050881;28;20169;-81
2022/03/18 12:15:37;;;;;;;11.10;2.57;;;15.10;78.50;;;;;;5054491;28;20169;-81
2022/03/18 12:18:04;;;;;;;7.17;2.87;;;14.50;79.00;;;;;;5055166;28;20260;-81
2022/03/18 12:20:35;;;;;;;9.00;2.33;;;13.90;82.10;;;;;;5054827;28;20181;-81
2022/03/18 12:23:06;;;;;;;8.10;2.33;;;14.40;82.40;;;;;;5053740;28;20196;-81
2022/03/18 12:25:31;;;;;;;8.67;2.50;;;14.50;80.00;;;;;;5054347;28;20181;-80
2022/03/18 12:27:57;;;;;;;8.63;2.40;;;14.20;80.50;;;;;;5054009;28;20178;-79
2022/03/18 12:30:31;;;;;;;6.67;2.50;;;14.40;82.50;;;;;;5054261;28;20708;-80
2022/03/18 12:32:59;;;;;;;9.67;2.53;;;15.00;80.30;;;;;;5055229;28;20611;-81
2022/03/18 12:35:30;;;;;;;5.63;2.47;;;14.80;81.20;;;;;;5055577;28;20275;-80
2022/03/18 12:38:22;;;;;;;9.13;2.70;;;14.30;80.70;;;;;;5054116;28;20177;-80
2022/03/18 12:40:56;;;;;;;7.13;2.47;;;14.60;81.70;;;;;;5051839;28;20728;-79
2022/03/18 12:43:24;;;;;;;9.97;2.80;;;14.50;79.70;;;;;;5055889;28;20286;-82
2022/03/18 12:45:50;;;;;;;8.73;2.40;;;14.70;80.30;;;;;;5053534;28;20262;-82
2022/03/18 12:48:18;;;;;;;7.13;2.40;;;14.50;82.20;;;;;;5054351;28;20209;-81
2022/03/18 12:50:49;;;;;;;10.43;2.50;;;14.30;80.10;;;;;;5054110;28;20212;-79
2022/03/18 12:53:30;;;;;;;7.43;2.40;;;14.40;81.80;;;;;;5054131;28;20307;-79
2022/03/18 12:55:58;;;;;;;6.57;2.43;;;14.30;82.10;;;;;;5054123;28;20187;-82
2022/03/18 12:58:26;;;;;;;7.13;2.70;;;14.30;81.80;;;;;;5054422;28;20204;-79
2022/03/18 13:00:56;;;;;;;5.80;2.20;;;14.30;82.70;;;;;;5054163;28;20197;-80